createdAt,value
2018-09-19T00:00:48.255Z,16.55
2018-09-19T00:03:16.159Z,16.42
2018-09-19T00:05:44.101Z,16.49
2018-09-19T00:08:12.062Z,16.39
2018-09-19T00:10:40.020Z,16.50
2018-09-19T00:13:08.034Z,16.55
2018-09-19T00:15:35.942Z,16.38
2018-09-19T00:18:03.889Z,16.01
2018-09-19T00:20:31.846Z,16.11
2018-09-19T00:22:59.934Z,16.05
2018-09-19T00:25:27.884Z,15.91
2018-09-19T00:27:55.768Z,15.97
2018-09-19T00:30:23.743Z,16.25
2018-09-19T00:32:51.640Z,16.17
2018-09-19T00:35:19.584Z,16.14
2018-09-19T00:37:48.164Z,16.10
2018-09-19T00:40:16.195Z,16.24
2018-09-19T00:42:44.388Z,16.26
2018-09-19T00:45:12.612Z,16.36
2018-09-19T00:47:40.559Z,16.15
2018-09-19T00:50:08.695Z,16.06
2018-09-19T00:52:36.575Z,16.05
2018-09-19T00:55:04.485Z,15.91
2018-09-19T00:57:32.432Z,15.86
2018-09-19T01:00:00.414Z,15.74
2018-09-19T01:02:28.458Z,15.84
2018-09-19T01:04:56.413Z,15.35
2018-09-19T01:07:24.435Z,15.15
2018-09-19T01:09:52.604Z,15.22
2018-09-19T01:12:20.647Z,15.07
2018-09-19T01:14:48.713Z,15.05
2018-09-19T01:17:16.687Z,14.87
2018-09-19T01:19:44.582Z,14.70
2018-09-19T01:22:12.602Z,14.89
2018-09-19T01:24:40.518Z,14.89
2018-09-19T01:27:08.558Z,14.99
2018-09-19T01:29:36.554Z,14.94
2018-09-19T01:32:04.540Z,14.87
2018-09-19T01:34:32.542Z,14.86
2018-09-19T01:37:00.614Z,14.59
2018-09-19T01:39:28.577Z,14.63
2018-09-19T01:41:56.568Z,14.90
2018-09-19T01:44:24.496Z,14.62
2018-09-19T01:46:52.412Z,14.28
2018-09-19T01:49:20.399Z,14.18
2018-09-19T01:51:52.734Z,14.25
2018-09-19T01:54:20.780Z,14.04
2018-09-19T01:56:48.694Z,14.09
2018-09-19T01:59:16.790Z,14.19
2018-09-19T02:01:44.847Z,14.11
2018-09-19T02:04:12.883Z,14.33
2018-09-19T02:06:40.777Z,14.36
2018-09-19T02:09:11.342Z,14.06
2018-09-19T02:11:40.550Z,13.82
2018-09-19T02:14:09.127Z,13.77
2018-09-19T02:16:37.417Z,13.78
2018-09-19T02:19:05.553Z,13.85
2018-09-19T02:21:33.495Z,13.89
2018-09-19T02:24:01.464Z,14.06
2018-09-19T02:26:29.496Z,14.06
2018-09-19T02:28:57.442Z,14.28
2018-09-19T02:31:25.443Z,14.29
2018-09-19T02:33:53.708Z,14.31
2018-09-19T02:36:25.660Z,14.17
2018-09-19T02:38:55.141Z,13.90
2018-09-19T02:41:23.106Z,13.94
2018-09-19T02:43:51.553Z,14.10
2018-09-19T02:46:19.525Z,14.10
2018-09-19T02:48:48.049Z,14.06
2018-09-19T02:51:16.779Z,14.01
2018-09-19T02:53:45.770Z,13.99
2018-09-19T02:56:13.776Z,14.06
2018-09-19T02:58:41.797Z,14.12
2018-09-19T03:01:10.704Z,14.03
2018-09-19T03:03:39.505Z,13.95
2018-09-19T03:06:07.440Z,14.07
2018-09-19T03:08:35.566Z,13.94
2018-09-19T03:11:03.586Z,13.96
2018-09-19T03:13:31.509Z,13.96
2018-09-19T03:15:59.563Z,13.61
2018-09-19T03:18:27.660Z,13.68
2018-09-19T03:20:55.641Z,13.87
2018-09-19T03:23:23.951Z,13.56
2018-09-19T03:25:51.948Z,13.72
2018-09-19T03:28:19.874Z,13.81
2018-09-19T03:30:48.249Z,13.72
2018-09-19T03:33:16.265Z,13.49
2018-09-19T03:35:44.256Z,13.22
2018-09-19T03:38:12.192Z,13.30
2018-09-19T03:40:40.131Z,13.19
2018-09-19T03:43:08.097Z,13.28
2018-09-19T03:45:36.021Z,13.29
2018-09-19T03:48:04.046Z,13.22
2018-09-19T03:50:31.925Z,13.14
2018-09-19T03:52:59.924Z,13.06
2018-09-19T03:55:27.861Z,12.87
2018-09-19T03:57:55.850Z,13.12
2018-09-19T04:00:23.985Z,13.04
2018-09-19T04:02:51.905Z,13.07
2018-09-19T04:05:19.872Z,13.08
2018-09-19T04:07:47.866Z,13.03
2018-09-19T04:10:15.857Z,12.83
2018-09-19T04:12:43.921Z,12.81
2018-09-19T04:15:11.958Z,12.81
2018-09-19T04:17:40.024Z,12.73
2018-09-19T04:20:08.106Z,12.67
2018-09-19T04:22:36.997Z,12.61
2018-09-19T04:25:05.200Z,12.56
2018-09-19T04:27:33.324Z,12.62
2018-09-19T04:30:01.657Z,12.62
2018-09-19T04:32:29.787Z,12.82
2018-09-19T04:34:57.812Z,13.01
2018-09-19T04:37:25.903Z,13.17
2018-09-19T04:39:54.401Z,13.29
2018-09-19T04:42:22.358Z,13.38
2018-09-19T04:44:51.060Z,13.65
2018-09-19T04:47:19.005Z,13.75
2018-09-19T04:49:47.104Z,13.80
2018-09-19T04:52:15.178Z,13.54
2018-09-19T04:54:46.158Z,13.48
2018-09-19T04:57:14.206Z,13.48
2018-09-19T04:59:42.108Z,13.34
2018-09-19T05:02:10.274Z,13.39
2018-09-19T05:04:38.242Z,13.62
2018-09-19T05:07:06.348Z,13.76
2018-09-19T05:09:34.291Z,13.79
2018-09-19T05:12:02.298Z,14.06
2018-09-19T05:14:31.165Z,13.99
2018-09-19T05:16:59.099Z,14.23
2018-09-19T05:19:27.121Z,14.43
2018-09-19T05:21:55.188Z,14.74
2018-09-19T05:24:23.522Z,14.25
2018-09-19T05:26:51.749Z,14.22
2018-09-19T05:29:19.990Z,14.57
2018-09-19T05:31:47.978Z,14.66
2018-09-19T05:34:16.143Z,14.62
2018-09-19T05:36:44.067Z,14.81
2018-09-19T05:39:11.974Z,14.64
2018-09-19T05:41:39.950Z,14.64
2018-09-19T05:44:07.945Z,14.71
2018-09-19T05:46:36.016Z,14.89
2018-09-19T05:49:03.954Z,15.22
2018-09-19T05:51:31.926Z,15.00
2018-09-19T05:53:59.810Z,15.62
2018-09-19T05:56:27.715Z,15.32
2018-09-19T05:58:55.692Z,15.12
2018-09-19T06:01:23.613Z,15.47
2018-09-19T06:03:51.586Z,15.57
2018-09-19T06:06:20.461Z,15.97
2018-09-19T06:08:48.639Z,15.65
2018-09-19T06:11:16.666Z,15.96
2018-09-19T06:13:44.762Z,15.92
2018-09-19T06:16:12.734Z,15.69
2018-09-19T06:18:40.698Z,15.55
2018-09-19T06:21:08.643Z,15.28
2018-09-19T06:23:36.667Z,15.05
2018-09-19T06:26:04.673Z,14.98
2018-09-19T06:28:32.805Z,15.02
2018-09-19T06:31:01.281Z,15.33
2018-09-19T06:33:29.288Z,15.30
2018-09-19T06:35:57.357Z,15.68
2018-09-19T06:38:25.479Z,16.13
2018-09-19T06:40:54.691Z,16.68
2018-09-19T06:43:22.663Z,17.27
2018-09-19T06:45:51.054Z,16.99
2018-09-19T06:48:19.003Z,17.40
2018-09-19T06:50:54.385Z,17.44
2018-09-19T06:53:22.624Z,17.79
2018-09-19T06:55:50.661Z,16.94
2018-09-19T06:58:18.736Z,17.25
2018-09-19T07:00:46.801Z,17.63
2018-09-19T07:03:14.952Z,18.74
2018-09-19T07:05:43.112Z,18.22
2018-09-19T07:08:11.277Z,18.70
2018-09-19T07:10:40.011Z,17.73
2018-09-19T07:13:07.965Z,19.18
2018-09-19T07:15:36.107Z,19.56
2018-09-19T07:18:04.208Z,20.56
2018-09-19T07:20:32.280Z,19.66
2018-09-19T07:23:00.275Z,19.30
2018-09-19T07:25:28.219Z,19.56
2018-09-19T07:27:56.145Z,20.12
2018-09-19T07:30:24.156Z,20.54
2018-09-19T07:32:52.194Z,21.22
2018-09-19T07:35:23.243Z,20.90
2018-09-19T07:37:51.320Z,20.54
2018-09-19T07:40:19.493Z,20.93
2018-09-19T07:42:47.474Z,19.68
2018-09-19T07:45:15.496Z,19.71
2018-09-19T07:47:43.564Z,19.88
2018-09-19T07:50:11.600Z,19.87
2018-09-19T07:52:39.573Z,20.58
2018-09-19T07:55:07.653Z,20.54
2018-09-19T07:57:39.292Z,21.54
2018-09-19T08:00:08.251Z,21.90
2018-09-19T08:02:36.147Z,21.97
2018-09-19T08:05:04.273Z,21.85
2018-09-19T08:07:32.747Z,21.53
2018-09-19T08:10:01.616Z,22.08
2018-09-19T08:12:29.626Z,21.80
2018-09-19T08:14:58.103Z,21.21
2018-09-19T08:17:26.752Z,21.81
2018-09-19T08:19:58.225Z,22.57
2018-09-19T08:22:26.532Z,23.13
2018-09-19T08:24:55.521Z,22.64
2018-09-19T08:27:23.620Z,22.88
2018-09-19T08:29:51.897Z,23.35
2018-09-19T08:32:19.921Z,22.77
2018-09-19T08:34:47.901Z,23.26
2018-09-19T08:37:16.094Z,23.71
2018-09-19T08:39:44.093Z,24.04
2018-09-19T08:42:12.217Z,24.51
2018-09-19T08:44:40.432Z,24.50
2018-09-19T08:47:08.361Z,24.36
2018-09-19T08:49:36.418Z,23.76
2018-09-19T08:52:04.676Z,22.37
2018-09-19T08:54:32.735Z,22.64
2018-09-19T08:57:01.419Z,22.23
2018-09-19T08:59:29.900Z,21.71
2018-09-19T09:01:58.083Z,22.16
2018-09-19T09:04:26.646Z,22.86
2018-09-19T09:06:55.047Z,23.23
2018-09-19T09:09:23.121Z,23.77
2018-09-19T09:11:51.065Z,23.88
2018-09-19T09:14:19.824Z,24.22
2018-09-19T09:16:48.022Z,24.64
2018-09-19T09:19:16.079Z,24.99
2018-09-19T09:21:44.225Z,24.72
2018-09-19T09:24:13.008Z,24.40
2018-09-19T09:26:41.338Z,24.66
2018-09-19T09:29:09.328Z,23.91
2018-09-19T09:31:37.313Z,23.81
2018-09-19T09:34:05.482Z,23.74
2018-09-19T09:36:35.471Z,23.91
2018-09-19T09:39:04.434Z,24.71
2018-09-19T09:41:32.411Z,25.15
2018-09-19T09:44:01.412Z,25.37
2018-09-19T09:46:29.776Z,25.76
2018-09-19T09:48:58.154Z,25.79
2018-09-19T09:51:26.436Z,25.86
2018-09-19T09:53:56.449Z,25.71
2018-09-19T09:56:24.495Z,25.78
2018-09-19T09:58:52.656Z,26.01
2018-09-19T10:01:20.783Z,25.87
2018-09-19T10:03:48.916Z,24.53
2018-09-19T10:06:16.963Z,24.99
2018-09-19T10:08:45.162Z,25.56
2018-09-19T10:11:13.173Z,25.08
2018-09-19T10:13:41.205Z,25.17
2018-09-19T10:16:09.810Z,24.38
2018-09-19T10:18:37.906Z,24.53
2018-09-19T10:21:06.481Z,24.76
2018-09-19T10:23:34.440Z,25.29
2018-09-19T10:26:02.562Z,25.73
2018-09-19T10:28:30.550Z,25.41
2018-09-19T10:30:58.504Z,25.19
2018-09-19T10:33:26.448Z,24.69
2018-09-19T10:35:54.460Z,25.01
2018-09-19T10:38:22.408Z,25.13
2018-09-19T10:40:50.412Z,24.93
2018-09-19T10:43:18.352Z,25.30
2018-09-19T10:45:46.399Z,24.80
2018-09-19T10:48:14.437Z,24.89
2018-09-19T10:50:43.401Z,24.77
2018-09-19T10:53:11.423Z,24.77
2018-09-19T10:55:39.345Z,25.18
2018-09-19T10:58:08.134Z,25.19
2018-09-19T11:00:36.177Z,25.48
2018-09-19T11:03:04.274Z,25.33
2018-09-19T11:05:32.853Z,25.48
2018-09-19T11:08:00.973Z,24.79
2018-09-19T11:10:28.992Z,24.41
2018-09-19T11:12:56.966Z,24.53
2018-09-19T11:15:25.107Z,24.61
2018-09-19T11:17:53.136Z,24.76
2018-09-19T11:20:21.088Z,25.26
2018-09-19T11:22:48.970Z,25.40
2018-09-19T11:25:17.062Z,24.72
2018-09-19T11:27:45.073Z,25.62
2018-09-19T11:30:13.050Z,25.68
2018-09-19T11:32:41.093Z,25.54
2018-09-19T11:35:09.093Z,25.25
2018-09-19T11:37:36.993Z,25.11
2018-09-19T11:40:05.090Z,25.30
2018-09-19T11:42:33.038Z,25.63
2018-09-19T11:45:02.204Z,26.19
2018-09-19T11:47:30.177Z,26.23
2018-09-19T11:49:58.350Z,26.84
2018-09-19T11:52:26.463Z,26.38
2018-09-19T11:54:54.756Z,25.46
2018-09-19T11:57:23.403Z,25.33
2018-09-19T11:59:55.270Z,26.01
2018-09-19T12:02:23.356Z,25.97
2018-09-19T12:04:51.689Z,25.63
2018-09-19T12:07:20.711Z,25.56
2018-09-19T12:09:48.663Z,25.74
2018-09-19T12:12:16.550Z,25.20
2018-09-19T12:14:44.490Z,25.35
2018-09-19T12:17:12.494Z,25.47
2018-09-19T12:19:40.401Z,25.64
2018-09-19T12:22:08.539Z,26.01
2018-09-19T12:24:36.612Z,25.89
2018-09-19T12:27:04.545Z,25.85
2018-09-19T12:29:36.597Z,26.75
2018-09-19T12:32:05.238Z,26.92
2018-09-19T12:34:33.337Z,25.47
2018-09-19T12:37:01.467Z,25.73
2018-09-19T12:39:29.424Z,26.70
2018-09-19T12:41:57.483Z,26.80
2018-09-19T12:44:25.491Z,27.13
2018-09-19T12:46:53.483Z,27.02
2018-09-19T12:49:21.508Z,26.07
2018-09-19T12:51:49.634Z,25.96
2018-09-19T12:54:17.590Z,25.59
2018-09-19T12:56:48.025Z,25.63
2018-09-19T12:59:16.200Z,25.66
2018-09-19T13:01:44.992Z,25.38
2018-09-19T13:04:12.975Z,25.49
2018-09-19T13:06:41.014Z,25.75
2018-09-19T13:09:10.889Z,26.20
2018-09-19T13:11:39.071Z,26.26
2018-09-19T13:14:07.367Z,26.41
2018-09-19T13:16:35.436Z,25.89
2018-09-19T13:19:03.399Z,26.12
2018-09-19T13:21:31.373Z,26.00
2018-09-19T13:23:59.303Z,26.01
2018-09-19T13:26:27.332Z,26.18
2018-09-19T13:28:55.682Z,25.74
2018-09-19T13:31:23.664Z,25.70
2018-09-19T13:33:51.701Z,26.08
2018-09-19T13:36:20.469Z,25.87
2018-09-19T13:38:48.568Z,25.89
2018-09-19T13:41:16.477Z,26.43
2018-09-19T13:43:44.749Z,26.01
2018-09-19T13:46:12.891Z,26.28
2018-09-19T13:48:42.777Z,26.90
2018-09-19T13:51:17.462Z,26.65
2018-09-19T13:53:45.465Z,26.38
2018-09-19T13:56:13.514Z,27.00
2018-09-19T13:58:41.545Z,26.66
2018-09-19T14:01:12.960Z,26.05
2018-09-19T14:03:44.880Z,25.61
2018-09-19T14:06:14.023Z,25.90
2018-09-19T14:08:42.706Z,25.95
2018-09-19T14:11:11.411Z,25.96
2018-09-19T14:13:41.927Z,25.64
2018-09-19T14:16:09.858Z,25.89
2018-09-19T14:18:37.881Z,25.74
2018-09-19T14:21:05.913Z,26.00
2018-09-19T14:23:33.945Z,25.95
2018-09-19T14:26:02.560Z,25.57
2018-09-19T14:28:30.562Z,26.44
2018-09-19T14:30:58.478Z,26.55
2018-09-19T14:33:26.562Z,26.14
2018-09-19T14:35:54.671Z,26.31
2018-09-19T14:38:22.772Z,25.81
2018-09-19T14:40:51.031Z,25.96
2018-09-19T14:43:19.173Z,26.16
2018-09-19T14:45:47.267Z,26.45
2018-09-19T14:48:15.430Z,26.57
2018-09-19T14:50:43.622Z,25.94
2018-09-19T14:53:11.706Z,25.93
2018-09-19T14:55:39.759Z,26.40
2018-09-19T14:58:07.861Z,25.91
2018-09-19T15:00:36.098Z,25.67
2018-09-19T15:03:04.366Z,25.26
2018-09-19T15:05:32.559Z,25.26
2018-09-19T15:08:00.589Z,25.07
2018-09-19T15:10:29.661Z,25.07
2018-09-19T15:12:57.607Z,24.96
2018-09-19T15:15:25.587Z,25.13
2018-09-19T15:17:54.190Z,25.57
2018-09-19T15:20:22.177Z,25.99
2018-09-19T15:22:50.171Z,25.56
2018-09-19T15:25:18.193Z,25.58
2018-09-19T15:27:47.216Z,25.64
2018-09-19T15:30:15.475Z,25.99
2018-09-19T15:32:43.521Z,25.38
2018-09-19T15:35:11.545Z,25.35
2018-09-19T15:37:39.679Z,25.51
2018-09-19T15:40:07.566Z,25.43
2018-09-19T15:42:35.844Z,25.54
2018-09-19T15:45:04.970Z,25.43
2018-09-19T15:47:33.066Z,25.39
2018-09-19T15:50:01.814Z,25.67
2018-09-19T15:52:29.870Z,25.57
2018-09-19T15:54:59.299Z,25.42
2018-09-19T15:57:27.514Z,25.26
2018-09-19T15:59:57.912Z,25.09
2018-09-19T16:02:26.042Z,24.77
2018-09-19T16:04:54.677Z,24.63
2018-09-19T16:07:22.771Z,24.68
2018-09-19T16:09:50.952Z,24.71
2018-09-19T16:12:20.025Z,24.31
2018-09-19T16:14:47.978Z,24.25
2018-09-19T16:17:15.989Z,24.21
2018-09-19T16:19:44.125Z,24.11
2018-09-19T16:22:12.159Z,23.72
2018-09-19T16:24:40.329Z,23.50
2018-09-19T16:27:08.879Z,23.30
2018-09-19T16:29:36.876Z,23.20
2018-09-19T16:32:04.958Z,23.48
2018-09-19T16:34:33.446Z,23.64
2018-09-19T16:37:02.300Z,23.57
2018-09-19T16:39:30.302Z,23.71
2018-09-19T16:41:58.277Z,22.99
2018-09-19T16:44:26.587Z,22.89
2018-09-19T16:46:54.711Z,23.19
2018-09-19T16:49:22.726Z,23.17
2018-09-19T16:51:50.715Z,22.97
2018-09-19T16:54:18.835Z,23.03
2018-09-19T16:56:47.687Z,22.90
2018-09-19T16:59:15.716Z,22.48
2018-09-19T17:01:44.813Z,22.40
2018-09-19T17:04:12.910Z,22.27
2018-09-19T17:06:41.036Z,21.98
2018-09-19T17:09:09.384Z,21.62
2018-09-19T17:11:37.392Z,21.77
2018-09-19T17:14:05.849Z,21.88
2018-09-19T17:16:34.289Z,21.58
2018-09-19T17:19:02.477Z,21.38
2018-09-19T17:21:30.418Z,21.36
2018-09-19T17:23:58.728Z,21.61
2018-09-19T17:26:26.647Z,21.43
2018-09-19T17:28:54.840Z,21.35
2018-09-19T17:31:22.866Z,21.24
2018-09-19T17:33:50.850Z,21.32
2018-09-19T17:36:18.922Z,21.53
2018-09-19T17:38:46.844Z,21.26
2018-09-19T17:41:14.988Z,20.96
2018-09-19T17:43:42.937Z,20.92
2018-09-19T17:46:11.063Z,20.79
2018-09-19T17:48:42.071Z,20.65
2018-09-19T17:51:13.142Z,20.78
2018-09-19T17:53:41.625Z,20.95
2018-09-19T17:56:09.611Z,21.05
2018-09-19T17:58:37.899Z,21.07
2018-09-19T18:01:06.354Z,21.12
2018-09-19T18:03:34.495Z,21.20
2018-09-19T18:06:02.522Z,21.18
2018-09-19T18:08:30.756Z,20.86
2018-09-19T18:10:58.754Z,20.66
2018-09-19T18:13:26.695Z,20.67
2018-09-19T18:15:55.491Z,20.61
2018-09-19T18:18:23.541Z,20.71
2018-09-19T18:20:51.775Z,20.64
2018-09-19T18:23:19.733Z,20.64
2018-09-19T18:25:47.839Z,20.61
2018-09-19T18:28:16.243Z,20.60
2018-09-19T18:30:44.160Z,20.65
2018-09-19T18:33:12.161Z,20.66
2018-09-19T18:35:40.202Z,20.58
2018-09-19T18:38:09.173Z,20.58
2018-09-19T18:40:38.861Z,20.51
2018-09-19T18:43:07.077Z,20.37
2018-09-19T18:45:35.345Z,20.15
2018-09-19T18:48:03.645Z,20.00
2018-09-19T18:50:31.997Z,19.97
2018-09-19T18:52:59.964Z,19.94
2018-09-19T18:55:28.989Z,19.74
2018-09-19T18:57:56.959Z,19.49
2018-09-19T19:00:24.849Z,19.52
2018-09-19T19:02:53.169Z,19.73
2018-09-19T19:05:21.580Z,19.82
2018-09-19T19:07:49.682Z,19.93
2018-09-19T19:10:18.586Z,19.80
2018-09-19T19:12:46.743Z,19.86
2018-09-19T19:15:14.689Z,19.85
2018-09-19T19:17:42.591Z,19.79
2018-09-19T19:20:10.656Z,19.82
2018-09-19T19:22:38.623Z,19.78
2018-09-19T19:25:06.694Z,19.73
2018-09-19T19:27:34.749Z,19.62
2018-09-19T19:30:02.967Z,19.44
2018-09-19T19:32:31.829Z,19.49
2018-09-19T19:35:00.290Z,19.45
2018-09-19T19:37:29.997Z,19.36
2018-09-19T19:39:58.352Z,19.24
2018-09-19T19:42:26.359Z,19.21
2018-09-19T19:44:54.544Z,19.01
2018-09-19T19:47:41.829Z,18.90
2018-09-19T19:50:10.180Z,18.67
2018-09-19T19:52:40.908Z,18.53
2018-09-19T19:55:10.054Z,18.26
2018-09-19T19:57:38.274Z,18.06
2018-09-19T20:00:07.611Z,18.14
2018-09-19T20:02:37.290Z,18.18
2018-09-19T20:05:19.216Z,18.11
2018-09-19T20:07:47.461Z,18.04
2018-09-19T20:10:15.863Z,17.83
2018-09-19T20:12:43.957Z,17.76
2018-09-19T20:15:11.974Z,17.52
2018-09-19T20:17:40.520Z,17.52
2018-09-19T20:20:09.952Z,17.48
2018-09-19T20:22:37.909Z,17.44
2018-09-19T20:25:05.929Z,17.44
2018-09-19T20:27:36.853Z,17.47
2018-09-19T20:30:18.495Z,17.70
2018-09-19T20:32:46.399Z,17.75
2018-09-19T20:35:14.422Z,17.99
2018-09-19T20:37:44.224Z,18.23
2018-09-19T20:40:12.317Z,18.26
2018-09-19T20:42:40.151Z,18.51
2018-09-19T20:45:08.372Z,18.51
2018-09-19T20:47:36.603Z,18.43
2018-09-19T20:50:04.578Z,18.43
2018-09-19T20:52:33.034Z,18.42
2018-09-19T20:55:00.962Z,18.43
2018-09-19T20:57:29.034Z,18.42
2018-09-19T21:00:31.225Z,18.52
2018-09-19T21:02:59.923Z,18.49
2018-09-19T21:05:28.156Z,18.56
2018-09-19T21:07:56.121Z,18.43
2018-09-19T21:10:24.034Z,18.23
2018-09-19T21:12:52.049Z,18.20
2018-09-19T21:15:20.089Z,18.23
2018-09-19T21:17:48.144Z,17.79
2018-09-19T21:20:16.335Z,17.82
2018-09-19T21:22:44.554Z,17.78
2018-09-19T21:25:12.528Z,17.54
2018-09-19T21:27:40.405Z,17.13
2018-09-19T21:30:08.370Z,17.41
2018-09-19T21:32:36.298Z,17.35
2018-09-19T21:35:04.468Z,17.27
2018-09-19T21:37:32.579Z,17.43
2018-09-19T21:40:00.886Z,17.48
2018-09-19T21:42:28.802Z,17.42
2018-09-19T21:44:57.212Z,17.48
2018-09-19T21:47:25.156Z,17.48
2018-09-19T21:49:53.787Z,17.08
2018-09-19T21:52:21.761Z,17.23
2018-09-19T21:54:49.640Z,17.15
2018-09-19T21:57:17.606Z,16.70
2018-09-19T21:59:45.531Z,16.60
2018-09-19T22:02:16.590Z,16.50
2018-09-19T22:04:45.560Z,16.36
2018-09-19T22:07:13.579Z,16.39
2018-09-19T22:09:41.757Z,16.41
2018-09-19T22:12:10.888Z,16.37
2018-09-19T22:14:39.971Z,16.36
2018-09-19T22:17:07.967Z,16.48
2018-09-19T22:19:36.226Z,16.12
2018-09-19T22:22:04.158Z,16.01
2018-09-19T22:24:32.474Z,16.09
2018-09-19T22:27:00.644Z,15.89
2018-09-19T22:29:28.661Z,16.07
2018-09-19T22:31:56.723Z,15.96
2018-09-19T22:34:24.898Z,15.78
2018-09-19T22:36:53.341Z,16.07
2018-09-19T22:39:21.389Z,16.03
2018-09-19T22:41:49.979Z,16.01
2018-09-19T22:44:19.056Z,16.08
2018-09-19T22:50:08.144Z,16.33
2018-09-19T22:52:37.225Z,16.20
2018-09-19T22:55:05.498Z,16.28
2018-09-19T22:57:33.532Z,16.34
2018-09-19T23:00:01.446Z,16.12
2018-09-19T23:02:29.511Z,15.81
2018-09-19T23:04:58.495Z,15.96
2018-09-19T23:07:26.478Z,16.09
2018-09-19T23:09:54.605Z,16.04
2018-09-19T23:12:22.571Z,16.08
2018-09-19T23:14:53.301Z,16.21
2018-09-19T23:17:21.614Z,16.00
2018-09-19T23:19:53.449Z,15.87
2018-09-19T23:22:22.776Z,15.81
2018-09-19T23:24:52.755Z,15.61
2018-09-19T23:27:21.890Z,15.62
2018-09-19T23:29:49.946Z,15.92
2018-09-19T23:32:17.999Z,15.84
2018-09-19T23:34:46.024Z,15.82
2018-09-19T23:37:13.984Z,16.15
2018-09-19T23:39:42.192Z,16.30
2018-09-19T23:42:10.904Z,15.93
2018-09-19T23:44:39.059Z,16.00
2018-09-19T23:47:07.117Z,15.85
2018-09-19T23:49:35.279Z,15.84
2018-09-19T23:52:03.621Z,15.68
2018-09-19T23:54:31.714Z,15.88
2018-09-19T23:56:59.857Z,15.85
2018-09-19T23:59:27.869Z,15.76
